Time;durP1;ratioP1;P1;durP2;ratioP2;P2;SDS_P1;SDS_P2;PMS_P1;PMS_P2;Temp;Humidity;BMP_temperature;BMP_pressure;BME280_temperature;BME280_humidity;BME280_pressure;Samples;Min_cycle;Max_cycle;Signal;HPM_P1;HPM_P2
2023/02/18 00:01:10;;;;;;;11.40;7.95;;;;;;;7.49;42.26;100190.19;5126750;27;20053;-71
2023/02/18 00:03:36;;;;;;;26.77;14.35;;;;;;;7.13;43.12;100185.00;5133742;27;20114;-71
2023/02/18 00:06:15;;;;;;;25.77;13.48;;;;;;;6.94;43.74;100185.78;5125368;27;20008;-70
2023/02/18 00:08:42;;;;;;;19.10;12.40;;;;;;;6.56;44.78;100175.25;5116657;27;20027;-71
2023/02/18 00:11:08;;;;;;;19.65;12.30;;;;;;;6.70;44.66;100180.13;5119659;27;20030;-70
2023/02/18 00:13:34;;;;;;;22.77;11.38;;;;;;;6.90;44.08;100175.53;5133241;27;20358;-70
2023/02/18 00:16:05;;;;;;;19.95;12.00;;;;;;;7.08;43.79;100166.41;5132269;27;20027;-71
2023/02/18 00:18:30;;;;;;;25.55;12.70;;;;;;;7.19;43.37;100166.31;5130144;27;20554;-71
2023/02/18 00:20:56;;;;;;;18.45;10.73;;;;;;;7.33;43.24;100172.00;5115417;27;20015;-70
2023/02/18 00:23:21;;;;;;;22.33;9.93;;;;;;;7.43;43.18;100172.72;5113141;28;20522;-70
2023/02/18 00:25:47;;;;;;;18.60;10.27;;;;;;;7.35;42.99;100175.31;5112957;28;20050;-70
2023/02/18 00:28:13;;;;;;;18.17;9.48;;;;;;;7.12;43.31;100158.31;5095266;28;20521;-71
2023/02/18 00:30:42;;;;;;;14.98;8.77;;;;;;;6.76;44.05;100169.81;5092415;28;20106;-70
2023/02/18 00:33:08;;;;;;;18.00;8.83;;;;;;;6.80;43.87;100156.97;5092278;28;20074;-70
2023/02/18 00:35:34;;;;;;;16.48;9.38;;;;;;;7.02;43.55;100153.69;5093027;28;20476;-71
2023/02/18 00:37:59;;;;;;;20.75;11.77;;;;;;;6.96;43.57;100146.53;5109654;28;20027;-70
2023/02/18 00:40:25;;;;;;;18.73;10.52;;;;;;;7.07;43.57;100152.81;5114023;28;20513;-70
2023/02/18 00:42:50;;;;;;;17.63;10.02;;;;;;;7.05;43.08;100153.09;5112540;28;20088;-70
2023/02/18 00:45:16;;;;;;;17.92;10.15;;;;;;;7.14;42.88;100137.44;5112576;28;20027;-71
2023/02/18 00:47:41;;;;;;;17.80;9.38;;;;;;;7.15;43.88;100135.47;5113757;28;20541;-71
2023/02/18 00:50:08;;;;;;;16.65;9.95;;;;;;;7.29;43.21;100130.03;5113345;28;20019;-70
2023/02/18 00:52:34;;;;;;;17.92;10.35;;;;;;;7.21;43.23;100131.50;5113092;28;20028;-71
2023/02/18 00:54:59;;;;;;;19.83;11.02;;;;;;;6.13;45.29;100123.06;5113722;27;20098;-71
2023/02/18 00:57:25;;;;;;;17.55;9.65;;;;;;;6.57;45.48;100123.25;5113680;28;20448;-70
2023/02/18 00:59:50;;;;;;;22.48;11.20;;;;;;;6.87;45.06;100113.78;5118236;27;20023;-71
2023/02/18 01:02:16;;;;;;;24.17;11.30;;;;;;;6.78;44.80;100107.22;5123031;27;20027;-71
2023/02/18 01:04:41;;;;;;;22.60;9.80;;;;;;;6.91;44.80;100099.31;5133952;27;20041;-70
2023/02/18 01:07:09;;;;;;;16.25;10.73;;;;;;;6.75;44.38;100107.78;5109315;27;20413;-70
2023/02/18 01:09:34;;;;;;;16.70;8.82;;;;;;;6.31;44.68;100099.31;5113200;28;20047;-71
2023/02/18 01:12:00;;;;;;;16.55;8.07;;;;;;;5.71;46.01;100091.94;5126446;27;20409;-71
2023/02/18 01:14:25;;;;;;;17.23;8.77;;;;;;;5.71;46.16;100089.16;5121530;27;20520;-70
2023/02/18 01:16:51;;;;;;;15.07;8.80;;;;;;;5.39;47.16;100078.53;5122790;27;20023;-70
2023/02/18 01:19:16;;;;;;;14.55;8.50;;;;;;;5.59;46.38;100081.19;5131717;27;20033;-70
2023/02/18 01:21:42;;;;;;;18.67;11.88;;;;;;;5.39;47.70;100076.56;5120447;27;20027;-70
2023/02/18 01:24:07;;;;;;;21.63;12.40;;;;;;;5.12;47.72;100074.19;5128581;27;20441;-70
2023/02/18 01:26:32;;;;;;;15.50;9.10;;;;;;;5.27;48.07;100067.75;5119085;27;20022;-70
2023/02/18 01:28:58;;;;;;;13.45;9.25;;;;;;;5.31;47.73;100064.13;5119892;27;20023;-71
2023/02/18 01:31:23;;;;;;;18.50;8.48;;;;;;;5.42;47.38;100067.69;5111599;28;20027;-70
2023/02/18 01:33:49;;;;;;;21.08;8.75;;;;;;;5.54;46.68;100056.25;5130904;27;20037;-71
2023/02/18 01:36:15;;;;;;;15.48;9.73;;;;;;;5.32;47.52;100062.22;5117386;27;20016;-71
2023/02/18 01:38:41;;;;;;;15.40;9.32;;;;;;;4.69;48.86;100056.06;5131720;27;20435;-71
2023/02/18 01:41:07;;;;;;;27.73;14.23;;;;;;;4.54;49.00;100051.38;5119730;27;20026;-70
2023/02/18 01:43:33;;;;;;;22.25;10.95;;;;;;;4.75;48.34;100054.09;5133220;27;20490;-71
2023/02/18 01:46:17;;;;;;;21.73;11.13;;;;;;;4.36;48.98;100058.34;5128821;27;20019;-70
2023/02/18 01:48:54;;;;;;;25.05;12.35;;;;;;;4.19;49.77;100055.84;5108151;27;20092;-70
2023/02/18 01:51:26;;;;;;;25.98;14.25;;;;;;;4.10;50.10;100063.06;5119129;27;20023;-70
2023/02/18 01:53:58;;;;;;;21.85;12.85;;;;;;;4.03;50.81;100075.25;5125730;27;20038;-70
2023/02/18 01:56:38;;;;;;;25.42;14.25;;;;;;;3.83;52.29;100073.31;5112402;28;20073;-70
2023/02/18 01:59:06;;;;;;;;;;;;;;;3.71;52.24;100070.78;5114110;27;20041;-70
2023/02/18 02:01:32;;;;;;;27.35;13.25;;;;;;;3.96;51.76;100066.38;5126861;27;19974;-72
2023/02/18 02:03:58;;;;;;;25.50;13.70;;;;;;;4.21;50.72;100064.72;5117278;27;20039;-70
2023/02/18 02:06:24;;;;;;;23.30;14.68;;;;;;;4.27;50.10;100060.00;5119432;27;20051;-70
2023/02/18 02:08:56;;;;;;;19.58;13.32;;;;;;;3.89;51.95;100060.31;5131948;27;20027;-72
2023/02/18 02:11:40;;;;;;;27.83;13.27;;;;;;;4.16;51.22;100073.88;5131876;27;20517;-70
2023/02/18 02:14:28;;;;;;;37.45;16.15;;;;;;;3.93;51.28;100073.31;5132858;27;20031;-70
2023/02/18 02:17:04;;;;;;;27.05;13.85;;;;;;;4.08;50.80;100078.00;5121477;27;20097;-71
2023/02/18 02:19:44;;;;;;;20.63;12.52;;;;;;;4.14;50.79;100075.25;5116764;27;20030;-70
2023/02/18 02:22:36;;;;;;;30.65;14.50;;;;;;;4.09;51.14;100070.53;5121570;27;20033;-70
2023/02/18 02:25:35;;;;;;;24.90;13.32;;;;;;;4.16;51.16;100078.56;5111667;28;20403;-71
2023/02/18 02:28:23;;;;;;;30.27;13.88;;;;;;;4.31;50.66;100074.97;5112054;28;20015;-70
2023/02/18 02:30:54;;;;;;;22.60;12.50;;;;;;;4.05;51.87;100070.25;5109486;28;20047;-71
2023/02/18 02:33:49;;;;;;;28.25;12.65;;;;;;;4.12;51.90;100074.69;5111954;28;20350;-70
2023/02/18 02:36:46;;;;;;;34.05;14.35;;;;;;;4.03;52.12;100066.94;5110095;28;20561;-70
2023/02/18 02:39:14;;;;;;;29.55;15.13;;;;;;;4.05;51.80;100078.56;5084826;28;20114;-70
2023/02/18 02:41:53;;;;;;;31.00;16.63;;;;;;;4.29;51.31;100079.97;5111765;28;20051;-70
2023/02/18 02:44:22;;;;;;;41.63;17.05;;;;;;;4.52;50.57;100083.22;5110480;28;20036;-71
2023/02/18 02:46:52;;;;;;;29.13;14.18;;;;;;;4.57;51.11;100080.47;5103283;28;20024;-70
2023/02/18 02:49:41;;;;;;;19.48;11.02;;;;;;;4.61;50.02;100084.34;5091382;28;20040;-70
2023/02/18 02:52:20;;;;;;;21.92;10.95;;;;;;;4.74;50.41;100085.72;5090103;28;20054;-70
2023/02/18 02:54:46;;;;;;;19.27;11.68;;;;;;;4.83;49.07;100081.25;5089930;28;20035;-70
2023/02/18 02:57:14;;;;;;;18.40;9.70;;;;;;;5.02;48.52;100086.16;5108194;28;20078;-70
2023/02/18 02:59:42;;;;;;;17.08;11.27;;;;;;;5.03;48.50;100083.13;5128600;28;20031;-71
2023/02/18 03:02:20;;;;;;;17.92;10.75;;;;;;;5.12;48.96;100091.69;5117354;28;20126;-71
2023/02/18 03:05:07;;;;;;;21.23;12.20;;;;;;;5.24;49.30;100087.75;5112985;28;20089;-70
2023/02/18 03:08:10;;;;;;;19.88;12.02;;;;;;;5.22;48.89;100087.22;5115123;27;20100;-70
2023/02/18 03:10:42;;;;;;;21.65;12.45;;;;;;;5.30;48.94;100086.59;5109927;28;20125;-71
2023/02/18 03:13:42;;;;;;;21.17;12.82;;;;;;;5.15;48.85;100068.91;5118785;28;20031;-70
2023/02/18 03:16:38;;;;;;;20.00;12.23;;;;;;;5.03;48.37;100062.88;5119506;28;20489;-71
2023/02/18 03:19:21;;;;;;;19.45;8.65;;;;;;;5.07;47.98;100058.44;5111433;28;20031;-71
2023/02/18 03:21:51;;;;;;;11.75;7.70;;;;;;;5.12;48.25;100052.84;5097670;28;20517;-70
2023/02/18 03:24:26;;;;;;;14.20;6.93;;;;;;;5.28;47.80;100055.56;5112493;28;20520;-71
2023/02/18 03:26:55;;;;;;;11.27;6.70;;;;;;;5.38;47.16;100049.94;5120950;28;20027;-70
2023/02/18 03:29:22;;;;;;;15.95;8.25;;;;;;;5.38;47.80;100058.28;5116005;27;20513;-71
2023/02/18 03:31:53;;;;;;;14.95;7.28;;;;;;;5.39;47.46;100059.13;5112246;28;20031;-71
2023/02/18 03:34:25;;;;;;;11.63;7.85;;;;;;;5.42;47.06;100056.56;5123699;28;20118;-71
2023/02/18 03:36:52;;;;;;;10.13;6.28;;;;;;;5.45;47.48;100056.03;5120523;28;20019;-70
2023/02/18 03:39:21;;;;;;;11.43;6.50;;;;;;;5.53;47.15;100056.53;5131196;27;20038;-70
2023/02/18 03:41:48;;;;;;;12.57;6.83;;;;;;;5.57;46.63;100057.63;5129812;27;20102;-71
2023/02/18 03:44:14;;;;;;;14.57;7.93;;;;;;;5.59;46.76;100056.19;5109888;28;20028;-70
2023/02/18 03:46:42;;;;;;;11.63;7.57;;;;;;;5.71;46.79;100057.78;5113817;27;20043;-72
2023/02/18 03:49:09;;;;;;;11.55;6.55;;;;;;;5.79;46.12;100064.69;5112432;28;20032;-70
2023/02/18 03:51:34;;;;;;;11.95;7.07;;;;;;;5.31;47.47;100066.91;5118180;27;20042;-72
2023/02/18 03:54:00;;;;;;;16.95;9.02;;;;;;;5.52;47.08;100082.63;5113427;27;20028;-71
2023/02/18 03:56:25;;;;;;;22.42;11.52;;;;;;;4.70;49.15;100081.81;5113359;28;20055;-70
2023/02/18 03:58:51;;;;;;;18.70;10.48;;;;;;;4.49;49.71;100090.19;5114663;28;20035;-70
2023/02/18 04:01:16;;;;;;;19.02;10.07;;;;;;;4.32;49.87;100088.53;5112504;28;20133;-71
2023/02/18 04:03:42;;;;;;;25.42;14.68;;;;;;;4.48;49.81;100074.69;5122227;27;20048;-71
2023/02/18 04:06:08;;;;;;;39.25;20.40;;;;;;;4.31;50.85;100092.41;5114514;28;20167;-71
2023/02/18 04:08:33;;;;;;;34.53;18.88;;;;;;;3.71;52.11;100092.91;5109066;27;20035;-71
2023/02/18 04:11:00;;;;;;;27.23;13.70;;;;;;;3.48;52.97;100099.78;5134480;27;20023;-70
2023/02/18 04:13:25;;;;;;;35.78;18.17;;;;;;;3.77;52.08;100099.28;5133428;27;20066;-71
2023/02/18 04:15:51;;;;;;;36.42;21.50;;;;;;;4.16;51.54;100120.09;5125651;27;20059;-70
2023/02/18 04:18:17;;;;;;;35.17;19.63;;;;;;;3.92;52.06;100115.09;5114341;28;20468;-70
2023/02/18 04:20:44;;;;;;;31.90;14.13;;;;;;;3.68;52.71;100115.59;5114376;27;20128;-71
2023/02/18 04:23:10;;;;;;;23.15;13.07;;;;;;;3.56;52.62;100112.25;5124206;27;20043;-70
2023/02/18 04:25:36;;;;;;;25.90;13.68;;;;;;;3.68;52.63;100123.06;5114237;28;20111;-71
2023/02/18 04:28:02;;;;;;;27.83;14.82;;;;;;;3.67;52.27;100129.69;5097712;28;20020;-70
2023/02/18 04:30:28;;;;;;;15.88;11.07;;;;;;;3.83;51.72;100122.28;5098105;28;20377;-70
2023/02/18 04:32:53;;;;;;;21.23;9.27;;;;;;;4.01;51.45;100130.06;5114038;28;20030;-71
2023/02/18 04:35:19;;;;;;;21.60;10.65;;;;;;;4.21;51.02;100137.56;5113251;28;20047;-71
2023/02/18 04:37:44;;;;;;;15.13;9.25;;;;;;;4.30;50.33;100137.84;5114357;28;20034;-71
2023/02/18 04:40:10;;;;;;;24.95;10.00;;;;;;;4.45;49.54;100139.78;5113692;28;20032;-71
2023/02/18 04:42:36;;;;;;;19.33;9.80;;;;;;;4.50;49.35;100120.38;5112575;28;20024;-70
2023/02/18 04:45:02;;;;;;;20.73;10.90;;;;;;;4.71;48.63;100114.00;5111577;28;20410;-71
2023/02/18 04:47:27;;;;;;;15.25;9.45;;;;;;;4.92;48.13;100115.59;5112537;28;20037;-70
2023/02/18 04:49:53;;;;;;;28.20;12.35;;;;;;;5.08;48.05;100107.25;5113699;28;20436;-70
2023/02/18 04:52:19;;;;;;;15.85;9.02;;;;;;;5.25;47.66;100109.69;5112606;28;20028;-71
2023/02/18 04:54:44;;;;;;;18.50;9.20;;;;;;;5.30;47.61;100115.19;5113695;28;20069;-71
2023/02/18 04:57:10;;;;;;;21.05;12.40;;;;;;;5.32;46.82;100110.19;5112827;28;20114;-71
2023/02/18 04:59:35;;;;;;;29.52;14.43;;;;;;;5.32;47.38;100112.13;5110569;27;20034;-70
2023/02/18 05:02:01;;;;;;;17.33;10.85;;;;;;;5.39;47.01;100122.94;5130359;27;20594;-71
2023/02/18 05:04:27;;;;;;;15.88;9.07;;;;;;;5.22;46.87;100123.28;5126771;27;20278;-71
2023/02/18 05:06:52;;;;;;;17.50;8.88;;;;;;;5.21;47.30;100108.56;5113355;28;20028;-71
2023/02/18 05:09:18;;;;;;;18.90;9.13;;;;;;;5.30;46.68;100106.88;5113335;28;20102;-71
2023/02/18 05:11:46;;;;;;;16.60;8.90;;;;;;;5.29;46.88;100098.81;5121571;27;20557;-71
2023/02/18 05:14:11;;;;;;;18.00;8.07;;;;;;;5.37;46.98;100114.03;5114178;27;20031;-72
2023/02/18 05:16:37;;;;;;;15.48;7.80;;;;;;;5.47;46.10;100114.84;5120575;27;20088;-70
2023/02/18 05:19:02;;;;;;;19.65;8.98;;;;;;;5.51;46.09;100101.22;5126260;27;20070;-70
2023/02/18 05:21:28;;;;;;;19.15;9.20;;;;;;;5.68;45.86;100106.41;5112688;27;20038;-70
2023/02/18 05:23:53;;;;;;;14.82;6.47;;;;;;;5.74;45.49;100104.44;5113650;27;20051;-70
2023/02/18 05:26:19;;;;;;;16.35;7.95;;;;;;;5.75;45.07;100097.75;5111777;28;20034;-68
2023/02/18 05:28:44;;;;;;;14.25;7.50;;;;;;;5.88;45.47;100097.13;5111925;28;20106;-72
2023/02/18 05:31:10;;;;;;;10.25;6.30;;;;;;;5.96;45.17;100104.00;5118285;27;20031;-74
2023/02/18 05:33:35;;;;;;;10.98;6.55;;;;;;;6.06;44.79;100105.09;5119286;27;20034;-70
2023/02/18 05:36:01;;;;;;;9.90;6.50;;;;;;;6.04;44.78;100108.13;5118153;27;20063;-70
2023/02/18 05:38:26;;;;;;;18.02;7.93;;;;;;;6.01;45.14;100100.34;5111383;28;20562;-70
2023/02/18 05:40:52;;;;;;;15.43;8.15;;;;;;;6.08;45.56;100109.22;5124944;27;20102;-69
2023/02/18 05:43:17;;;;;;;17.13;7.38;;;;;;;6.19;45.15;100098.88;5127616;27;20031;-68
2023/02/18 05:45:43;;;;;;;13.15;6.53;;;;;;;6.19;45.07;100093.31;5110885;27;20122;-69
2023/02/18 05:48:08;;;;;;;11.18;7.40;;;;;;;6.32;44.32;100094.56;5106175;28;20414;-69
2023/02/18 05:50:34;;;;;;;23.25;8.32;;;;;;;6.36;44.78;100094.81;5111274;27;20035;-70
2023/02/18 05:52:59;;;;;;;18.58;9.48;;;;;;;6.13;44.96;100108.34;5112622;28;20028;-69
2023/02/18 05:55:25;;;;;;;23.60;11.73;;;;;;;6.28;44.56;100108.25;5112469;28;20084;-69
2023/02/18 05:57:51;;;;;;;41.33;18.92;;;;;;;6.45;44.59;100107.78;5110994;28;20438;-69
2023/02/18 06:00:17;;;;;;;37.45;20.90;;;;;;;6.59;44.45;100104.34;5112337;27;20031;-69
2023/02/18 06:02:46;;;;;;;46.50;21.80;;;;;;;6.62;44.47;100094.59;5133159;27;20481;-73
2023/02/18 06:05:11;;;;;;;35.00;16.13;;;;;;;6.57;44.56;100090.75;5120217;27;20027;-69
2023/02/18 06:07:37;;;;;;;39.13;18.08;;;;;;;6.47;45.28;100096.41;5104043;28;20595;-71
2023/02/18 06:10:04;;;;;;;47.40;20.60;;;;;;;6.26;45.49;100091.00;5114097;27;20464;-70
2023/02/18 06:12:29;;;;;;;62.03;31.23;;;;;;;6.07;45.52;100099.22;5125834;27;20501;-70
2023/02/18 06:14:55;;;;;;;78.47;40.22;;;;;;;6.08;46.07;100106.44;5111854;27;20051;-70
2023/02/18 06:17:21;;;;;;;94.85;42.35;;;;;;;6.16;46.25;100105.81;5112159;27;20449;-71
2023/02/18 06:19:47;;;;;;;137.95;61.38;;;;;;;6.07;46.32;100113.09;5111234;28;20023;-73
2023/02/18 06:22:13;;;;;;;215.27;75.47;;;;;;;5.82;47.20;100111.31;5110939;28;20035;-72
2023/02/18 06:24:38;;;;;;;177.52;62.15;;;;;;;5.71;47.78;100105.81;5110460;28;20104;-72
2023/02/18 06:27:04;;;;;;;75.15;31.85;;;;;;;5.55;48.15;100101.47;5111783;28;20027;-73
2023/02/18 06:29:30;;;;;;;70.70;30.83;;;;;;;5.58;48.32;100103.69;5107937;27;20028;-74
2023/02/18 06:31:56;;;;;;;70.95;32.03;;;;;;;5.65;47.72;100103.38;5096928;27;20474;-73
2023/02/18 06:34:22;;;;;;;51.65;23.83;;;;;;;5.75;47.84;100104.13;5100436;28;20035;-71
2023/02/18 06:36:48;;;;;;;33.03;15.85;;;;;;;5.95;47.30;100105.13;5105490;28;20459;-72
2023/02/18 06:39:13;;;;;;;36.85;16.95;;;;;;;6.16;46.63;100096.69;5104578;28;20556;-72
2023/02/18 06:41:39;;;;;;;75.07;42.88;;;;;;;6.28;47.00;100099.06;5107257;28;20019;-70
2023/02/18 06:44:05;;;;;;;58.78;29.73;;;;;;;6.52;46.99;100099.16;5106108;28;20501;-75
2023/02/18 06:46:30;;;;;;;42.70;20.15;;;;;;;6.74;46.92;100100.56;5099380;28;20035;-73
2023/02/18 06:48:56;;;;;;;33.75;18.88;;;;;;;7.03;46.07;100085.81;5108061;28;20059;-72
2023/02/18 06:51:21;;;;;;;40.90;23.15;;;;;;;7.13;45.36;100060.66;5108392;28;20027;-72
2023/02/18 06:53:47;;;;;;;25.58;14.50;;;;;;;7.29;45.18;100060.47;5107775;28;20035;-72
2023/02/18 06:56:12;;;;;;;19.27;11.45;;;;;;;7.47;44.65;100055.19;5098297;28;20071;-72
2023/02/18 06:58:38;;;;;;;16.23;9.30;;;;;;;7.73;43.91;100050.94;5098932;28;20032;-72
2023/02/18 07:01:04;;;;;;;26.48;15.07;;;;;;;8.04;43.59;100052.41;5108798;28;20539;-73
2023/02/18 07:03:29;;;;;;;43.80;20.95;;;;;;;8.28;43.43;100054.25;5106427;28;20032;-74
2023/02/18 07:05:55;;;;;;;30.70;17.60;;;;;;;8.47;42.30;100064.50;5109170;28;20023;-75
2023/02/18 07:08:21;;;;;;;33.90;24.15;;;;;;;8.70;41.65;100068.31;5130228;27;20413;-73
2023/02/18 07:10:46;;;;;;;42.78;26.48;;;;;;;8.93;40.65;100065.59;5105292;28;20405;-72
2023/02/18 07:13:13;;;;;;;39.22;24.48;;;;;;;9.06;40.34;100053.66;5107615;28;20467;-71
2023/02/18 07:15:38;;;;;;;69.55;38.97;;;;;;;9.15;39.83;100036.16;5105036;28;20657;-71
2023/02/18 07:18:04;;;;;;;28.83;16.17;;;;;;;9.35;40.29;100046.88;5129915;27;20069;-73
2023/02/18 07:20:30;;;;;;;38.03;24.75;;;;;;;9.51;39.48;100038.16;5099676;27;20046;-69
2023/02/18 07:22:55;;;;;;;25.05;16.48;;;;;;;9.48;39.68;100048.00;5126422;27;20057;-74
2023/02/18 07:25:21;;;;;;;20.27;11.52;;;;;;;9.52;39.17;100048.19;5113605;27;20035;-74
2023/02/18 07:27:47;;;;;;;23.52;8.23;;;;;;;9.47;39.35;100049.16;5122790;27;20023;-72
2023/02/18 07:30:13;;;;;;;19.48;7.85;;;;;;;9.54;39.59;100041.16;5108769;27;20031;-71
2023/02/18 07:32:38;;;;;;;19.15;9.63;;;;;;;9.54;39.15;100029.97;5111940;28;20084;-72
2023/02/18 07:35:05;;;;;;;15.27;6.25;;;;;;;9.83;38.57;100037.16;5106557;27;20135;-72
2023/02/18 07:37:31;;;;;;;13.82;6.90;;;;;;;10.13;38.31;100041.47;5096694;28;20131;-70
2023/02/18 07:39:56;;;;;;;21.92;7.05;;;;;;;10.25;37.98;100031.34;5091120;28;20513;-73
2023/02/18 07:42:22;;;;;;;14.65;5.97;;;;;;;10.22;37.49;100014.41;5096739;28;20056;-71
2023/02/18 07:44:48;;;;;;;12.65;6.78;;;;;;;10.22;36.66;100003.22;5111493;28;20036;-72
2023/02/18 07:47:16;;;;;;;19.70;11.00;;;;;;;10.14;37.54;100007.63;5112003;28;20448;-71
2023/02/18 07:49:41;;;;;;;19.92;11.55;;;;;;;10.14;37.32;100010.41;5090818;28;20096;-74
2023/02/18 07:52:07;;;;;;;18.35;10.18;;;;;;;10.27;37.40;100008.66;5091243;28;20027;-73
2023/02/18 07:54:32;;;;;;;31.33;9.82;;;;;;;10.17;37.17;100001.38;5106063;28;20028;-72
2023/02/18 07:56:58;;;;;;;28.25;13.35;;;;;;;10.43;37.54;100008.28;5113828;28;20032;-71
2023/02/18 07:59:23;;;;;;;19.50;10.55;;;;;;;10.76;36.20;100002.34;5114943;28;20034;-69
2023/02/18 08:01:49;;;;;;;23.55;11.82;;;;;;;11.16;36.61;100001.50;5113913;28;20410;-72
2023/02/18 08:04:15;;;;;;;20.10;9.30;;;;;;;11.46;35.94;100004.47;5113305;28;20023;-72
2023/02/18 08:06:44;;;;;;;16.58;9.38;;;;;;;11.41;35.86;99999.91;5114352;28;20019;-72
2023/02/18 08:09:11;;;;;;;17.30;8.40;;;;;;;11.54;36.43;100005.66;5112906;28;20027;-72
2023/02/18 08:11:37;;;;;;;16.60;8.63;;;;;;;11.73;35.45;99997.75;5113249;27;20035;-72
2023/02/18 08:14:03;;;;;;;15.10;8.23;;;;;;;11.69;35.72;99993.13;5113724;27;20110;-72
2023/02/18 08:16:29;;;;;;;12.75;8.05;;;;;;;11.68;35.11;99999.88;5111281;28;20055;-73
2023/02/18 08:18:55;;;;;;;15.10;8.63;;;;;;;11.97;35.34;99990.81;5113580;28;20532;-72
2023/02/18 08:21:22;;;;;;;17.20;9.40;;;;;;;12.45;35.10;99985.28;5114104;28;20456;-72
2023/02/18 08:23:48;;;;;;;32.75;9.20;;;;;;;12.82;34.56;99982.00;5113366;28;20075;-72
2023/02/18 08:26:13;;;;;;;16.60;8.75;;;;;;;12.76;35.26;99978.56;5112080;28;20480;-72
2023/02/18 08:28:39;;;;;;;22.05;10.05;;;;;;;12.57;35.39;99981.78;5113724;27;20020;-72
2023/02/18 08:31:14;;;;;;;15.93;8.57;;;;;;;12.59;35.53;99971.84;5111849;28;20026;-72
2023/02/18 08:33:39;;;;;;;19.42;8.32;;;;;;;12.82;35.55;99967.97;5111486;28;20447;-72
2023/02/18 08:36:06;;;;;;;13.75;7.75;;;;;;;12.88;34.62;99973.06;5112336;28;20019;-72
2023/02/18 08:38:32;;;;;;;16.48;7.68;;;;;;;12.78;34.54;99979.84;5112441;28;20125;-72
2023/02/18 08:41:06;;;;;;;10.60;5.40;;;;;;;12.69;32.09;99983.88;5112425;28;20054;-72
2023/02/18 08:43:31;;;;;;;9.63;6.00;;;;;;;12.78;31.14;99979.84;5113686;28;20031;-72
2023/02/18 08:45:58;;;;;;;12.27;6.47;;;;;;;12.83;31.47;99997.69;5111536;28;20025;-72
2023/02/18 08:48:25;;;;;;;16.58;8.63;;;;;;;12.68;31.97;99980.25;5111607;28;20410;-72
2023/02/18 08:50:50;;;;;;;17.17;8.50;;;;;;;12.69;32.62;99993.13;5112158;28;20030;-72
2023/02/18 08:53:16;;;;;;;17.30;9.65;;;;;;;12.67;33.11;99991.81;5112259;28;20150;-72
2023/02/18 08:55:42;;;;;;;20.33;9.90;;;;;;;12.74;33.75;99981.69;5113358;28;20449;-72
2023/02/18 08:58:08;;;;;;;19.30;9.10;;;;;;;12.74;33.09;99986.50;5112033;28;20118;-72
2023/02/18 09:00:34;;;;;;;17.67;9.52;;;;;;;12.77;33.62;99977.41;5112057;28;20401;-72
2023/02/18 09:03:00;;;;;;;22.90;8.32;;;;;;;13.11;33.52;99983.16;5112383;28;20031;-72
2023/02/18 09:05:26;;;;;;;18.02;10.05;;;;;;;13.46;32.98;99988.56;5111760;28;20020;-72
2023/02/18 09:07:51;;;;;;;39.70;12.10;;;;;;;13.54;32.52;99976.47;5113272;28;20505;-72
2023/02/18 09:10:17;;;;;;;15.18;9.95;;;;;;;13.85;32.35;99974.38;5111973;28;20054;-72
2023/02/18 09:12:42;;;;;;;26.30;11.10;;;;;;;14.09;32.17;99984.88;5113208;28;20023;-72
2023/02/18 09:15:08;;;;;;;16.83;9.80;;;;;;;14.37;30.85;99983.44;5112910;28;20027;-72
2023/02/18 09:17:34;;;;;;;17.10;10.25;;;;;;;14.80;30.55;99975.66;5112890;28;20047;-72
2023/02/18 09:19:59;;;;;;;15.60;10.32;;;;;;;15.11;30.26;99977.06;5112907;28;20098;-72
2023/02/18 09:22:25;;;;;;;15.23;7.38;;;;;;;15.15;28.80;99978.84;5112883;28;20030;-72
2023/02/18 09:24:50;;;;;;;11.70;6.55;;;;;;;14.91;28.70;99961.94;5111698;28;20086;-72
2023/02/18 09:27:16;;;;;;;16.00;7.22;;;;;;;14.81;28.74;99974.50;5110943;28;20020;-72
2023/02/18 09:29:41;;;;;;;14.30;6.18;;;;;;;14.74;28.69;99970.28;5112859;27;20024;-72
2023/02/18 09:32:08;;;;;;;16.13;7.45;;;;;;;14.71;29.25;99968.09;5111336;28;20247;-72
2023/02/18 09:34:34;;;;;;;17.70;7.40;;;;;;;14.93;29.08;99987.75;5112988;28;20030;-72
2023/02/18 09:36:59;;;;;;;11.00;6.40;;;;;;;14.98;29.14;99971.44;5112546;28;20157;-72
2023/02/18 09:39:25;;;;;;;14.18;8.52;;;;;;;15.28;28.88;99976.81;5112326;27;20047;-72
2023/02/18 09:42:00;;;;;;;13.50;7.38;;;;;;;15.50;27.78;99971.81;5123653;27;20104;-72
2023/02/18 09:44:26;;;;;;;13.20;6.97;;;;;;;15.66;27.53;99979.53;5118406;27;20031;-72
2023/02/18 09:46:59;;;;;;;11.68;6.68;;;;;;;15.86;27.02;99972.88;5116834;27;20011;-73
2023/02/18 09:49:27;;;;;;;13.50;6.38;;;;;;;15.96;26.34;99973.59;5107276;28;20023;-72
2023/02/18 09:51:55;;;;;;;15.57;7.50;;;;;;;16.21;26.86;99970.63;5091678;28;20557;-72
2023/02/18 09:54:21;;;;;;;11.55;6.35;;;;;;;16.42;26.43;99961.91;5110708;28;20015;-72
2023/02/18 09:56:48;;;;;;;9.05;6.03;;;;;;;16.61;26.32;99955.53;5108866;28;20027;-72
2023/02/18 09:59:17;;;;;;;15.48;6.43;;;;;;;16.50;26.03;99948.81;5110838;28;20019;-72
2023/02/18 10:01:46;;;;;;;8.55;5.32;;;;;;;16.60;25.99;99953.09;5110894;28;20041;-72
2023/02/18 10:04:18;;;;;;;13.98;6.18;;;;;;;16.61;25.95;99947.06;5110646;28;20020;-72
2023/02/18 10:06:45;;;;;;;20.85;9.30;;;;;;;16.70;26.09;99936.41;5106650;28;20012;-72
2023/02/18 10:09:28;;;;;;;20.77;8.88;;;;;;;16.77;25.93;99935.78;5108580;28;20034;-72
2023/02/18 10:11:59;;;;;;;46.42;23.90;;;;;;;16.78;25.79;99928.94;5106973;28;20426;-72
2023/02/18 10:14:24;;;;;;;22.85;11.45;;;;;;;16.67;25.94;99925.88;5122687;27;20110;-73
2023/02/18 10:16:51;;;;;;;16.65;9.65;;;;;;;16.64;26.55;99920.91;5104013;28;20134;-72
2023/02/18 10:19:35;;;;;;;18.17;9.52;;;;;;;16.70;26.09;99913.81;5106651;28;20024;-72
2023/02/18 10:22:05;;;;;;;13.48;8.80;;;;;;;16.80;26.62;99909.63;5109309;28;20023;-72
2023/02/18 10:24:43;;;;;;;13.30;8.80;;;;;;;17.10;25.93;99894.19;5106650;28;20054;-72
2023/02/18 10:27:14;;;;;;;14.88;8.32;;;;;;;16.90;25.79;99896.94;5108884;28;20019;-72
2023/02/18 10:29:40;;;;;;;12.85;8.00;;;;;;;16.90;25.92;99905.41;5109756;28;20038;-72
2023/02/18 10:32:25;;;;;;;64.32;34.40;;;;;;;16.76;26.27;99888.13;5105752;28;20020;-73
2023/02/18 10:34:59;;;;;;;10.43;7.47;;;;;;;16.72;25.90;99898.50;5108880;28;20405;-72
2023/02/18 10:38:14;;;;;;;30.55;17.10;;;;;;;17.10;26.08;99891.34;5110661;28;20023;-72
2023/02/18 10:40:45;;;;;;;14.57;7.65;;;;;;;16.87;25.97;99885.56;5044964;28;20543;-70
2023/02/18 10:43:52;;;;;;;17.92;9.52;;;;;;;16.80;26.03;99874.91;5035166;28;20164;-72
2023/02/18 10:46:55;;;;;;;15.50;7.10;;;;;;;17.21;25.25;99871.81;5088772;28;20038;-71
2023/02/18 10:49:41;;;;;;;17.13;7.22;;;;;;;17.39;24.87;99873.00;5108523;28;20047;-69
2023/02/18 10:52:16;;;;;;;26.02;9.65;;;;;;;17.47;25.03;99864.69;5108747;28;20034;-72
2023/02/18 10:54:47;;;;;;;16.60;9.05;;;;;;;17.24;25.69;99866.22;5108640;28;20058;-71
2023/02/18 10:57:21;;;;;;;14.23;6.65;;;;;;;16.98;25.33;99864.03;5112997;28;20023;-71
2023/02/18 11:00:09;;;;;;;9.02;6.07;;;;;;;17.06;25.15;99870.69;5110197;28;20472;-70
2023/02/18 11:02:35;;;;;;;12.45;7.72;;;;;;;17.09;25.83;99855.81;5114256;28;20024;-69
2023/02/18 11:05:15;;;;;;;16.85;10.25;;;;;;;17.10;25.23;99851.78;5113585;28;20084;-74
2023/02/18 11:07:45;;;;;;;18.42;8.07;;;;;;;17.01;25.38;99856.81;5112861;28;20064;-70
2023/02/18 11:10:20;;;;;;;18.45;8.48;;;;;;;16.95;25.84;99842.97;5112783;28;20031;-71
2023/02/18 11:12:55;;;;;;;14.85;8.30;;;;;;;17.17;25.71;99845.47;5113952;28;20028;-70
2023/02/18 11:15:25;;;;;;;12.52;7.05;;;;;;;17.48;25.63;99836.00;5113091;28;20521;-69
2023/02/18 11:17:52;;;;;;;;;;;;;;;17.59;24.69;99833.41;5112167;28;20402;-71
2023/02/18 11:20:24;;;;;;;11.98;7.90;;;;;;;17.35;25.09;99834.53;5112047;28;19911;-70
2023/02/18 11:22:50;;;;;;;11.82;7.55;;;;;;;17.14;24.90;99827.25;5112136;28;20050;-70
2023/02/18 11:25:25;;;;;;;12.77;7.22;;;;;;;17.17;25.39;99826.50;5113776;27;20078;-71
2023/02/18 11:27:56;;;;;;;14.57;7.63;;;;;;;17.08;25.38;99823.09;5111869;27;20097;-74
2023/02/18 11:30:26;;;;;;;14.60;7.45;;;;;;;17.56;24.96;99822.84;5112968;27;20413;-73